sensor_id;sensor_type;location;lat;lon;timestamp;temperature;humidity
11501;DHT22;5807;51.606;7.624;2022-09-28T00:01:46;8.70;99.90
11501;DHT22;5807;51.606;7.624;2022-09-28T00:04:13;8.70;99.90
11501;DHT22;5807;51.606;7.624;2022-09-28T00:14:03;8.70;99.90
11501;DHT22;5807;51.606;7.624;2022-09-28T00:16:33;8.70;99.90
11501;DHT22;5807;51.606;7.624;2022-09-28T00:19:01;8.70;99.90
11501;DHT22;5807;51.606;7.624;2022-09-28T00:21:31;8.80;99.90
11501;DHT22;5807;51.606;7.624;2022-09-28T00:24:01;8.80;99.90
11501;DHT22;5807;51.606;7.624;2022-09-28T00:26:41;8.80;99.90
11501;DHT22;5807;51.606;7.624;2022-09-28T00:29:15;8.80;99.90
11501;DHT22;5807;51.606;7.624;2022-09-28T00:31:42;8.80;99.90
11501;DHT22;5807;51.606;7.624;2022-09-28T00:34:09;8.80;99.90
11501;DHT22;5807;51.606;7.624;2022-09-28T00:36:36;8.80;99.90
11501;DHT22;5807;51.606;7.624;2022-09-28T00:39:05;8.80;99.90
11501;DHT22;5807;51.606;7.624;2022-09-28T00:41:33;8.90;99.90
11501;DHT22;5807;51.606;7.624;2022-09-28T00:44:39;8.80;99.90
11501;DHT22;5807;51.606;7.624;2022-09-28T00:47:20;8.80;99.90
11501;DHT22;5807;51.606;7.624;2022-09-28T00:49:54;8.90;99.90
11501;DHT22;5807;51.606;7.624;2022-09-28T00:52:27;8.80;99.90
11501;DHT22;5807;51.606;7.624;2022-09-28T00:54:58;8.90;99.90
11501;DHT22;5807;51.606;7.624;2022-09-28T00:57:26;8.80;99.90
11501;DHT22;5807;51.606;7.624;2022-09-28T00:59:54;8.80;99.90
11501;DHT22;5807;51.606;7.624;2022-09-28T01:04:49;8.90;99.90
11501;DHT22;5807;51.606;7.624;2022-09-28T01:07:17;8.90;99.90
11501;DHT22;5807;51.606;7.624;2022-09-28T01:09:45;8.80;99.90
11501;DHT22;5807;51.606;7.624;2022-09-28T01:14:41;8.80;99.90
11501;DHT22;5807;51.606;7.624;2022-09-28T01:17:13;9.60;99.90
11501;DHT22;5807;51.606;7.624;2022-09-28T01:20:03;8.90;99.90
11501;DHT22;5807;51.606;7.624;2022-09-28T01:22:50;9.00;99.90
11501;DHT22;5807;51.606;7.624;2022-09-28T01:25:29;8.90;99.90
11501;DHT22;5807;51.606;7.624;2022-09-28T01:28:03;8.90;99.90
11501;DHT22;5807;51.606;7.624;2022-09-28T01:33:05;8.90;99.90
11501;DHT22;5807;51.606;7.624;2022-09-28T01:35:35;8.80;99.90
11501;DHT22;5807;51.606;7.624;2022-09-28T01:38:07;8.80;99.90
11501;DHT22;5807;51.606;7.624;2022-09-28T01:40:36;8.70;99.90
11501;DHT22;5807;51.606;7.624;2022-09-28T01:43:07;8.70;99.90
11501;DHT22;5807;51.606;7.624;2022-09-28T01:45:42;8.30;99.90
11501;DHT22;5807;51.606;7.624;2022-09-28T01:48:12;8.60;99.90
11501;DHT22;5807;51.606;7.624;2022-09-28T01:50:43;8.60;99.90
11501;DHT22;5807;51.606;7.624;2022-09-28T01:53:18;8.80;99.90
11501;DHT22;5807;51.606;7.624;2022-09-28T01:55:48;8.60;99.90
11501;DHT22;5807;51.606;7.624;2022-09-28T01:58:23;8.60;99.90
11501;DHT22;5807;51.606;7.624;2022-09-28T02:00:56;8.50;99.90
11501;DHT22;5807;51.606;7.624;2022-09-28T02:03:30;9.00;99.90
11501;DHT22;5807;51.606;7.624;2022-09-28T02:06:04;8.80;99.90
11501;DHT22;5807;51.606;7.624;2022-09-28T02:08:35;8.60;99.90
11501;DHT22;5807;51.606;7.624;2022-09-28T02:11:07;9.80;99.90
11501;DHT22;5807;51.606;7.624;2022-09-28T02:13:38;8.50;99.90
11501;DHT22;5807;51.606;7.624;2022-09-28T02:16:13;8.50;99.90
11501;DHT22;5807;51.606;7.624;2022-09-28T02:18:42;8.40;99.90
11501;DHT22;5807;51.606;7.624;2022-09-28T02:21:14;8.50;99.90
11501;DHT22;5807;51.606;7.624;2022-09-28T02:23:47;9.50;99.90
11501;DHT22;5807;51.606;7.624;2022-09-28T02:26:20;8.40;99.90
11501;DHT22;5807;51.606;7.624;2022-09-28T02:28:49;8.30;99.90
11501;DHT22;5807;51.606;7.624;2022-09-28T02:31:16;8.80;99.90
11501;DHT22;5807;51.606;7.624;2022-09-28T02:33:44;8.40;99.90
11501;DHT22;5807;51.606;7.624;2022-09-28T02:36:12;8.30;99.90
11501;DHT22;5807;51.606;7.624;2022-09-28T02:38:38;7.50;99.90
11501;DHT22;5807;51.606;7.624;2022-09-28T02:41:14;8.30;99.90
11501;DHT22;5807;51.606;7.624;2022-09-28T02:43:55;8.30;99.90
11501;DHT22;5807;51.606;7.624;2022-09-28T02:46:30;8.40;99.90
11501;DHT22;5807;51.606;7.624;2022-09-28T02:49:07;8.40;99.90
11501;DHT22;5807;51.606;7.624;2022-09-28T02:51:41;8.40;99.90
11501;DHT22;5807;51.606;7.624;2022-09-28T02:54:45;8.40;99.90
11501;DHT22;5807;51.606;7.624;2022-09-28T02:57:22;9.90;99.90
11501;DHT22;5807;51.606;7.624;2022-09-28T03:00:02;9.20;99.90
11501;DHT22;5807;51.606;7.624;2022-09-28T03:02:33;9.20;99.90
11501;DHT22;5807;51.606;7.624;2022-09-28T03:05:09;10.90;99.90
11501;DHT22;5807;51.606;7.624;2022-09-28T03:07:40;8.50;99.90
11501;DHT22;5807;51.606;7.624;2022-09-28T03:10:15;8.50;99.90
11501;DHT22;5807;51.606;7.624;2022-09-28T03:12:46;8.50;99.90
11501;DHT22;5807;51.606;7.624;2022-09-28T03:15:21;8.50;99.90
11501;DHT22;5807;51.606;7.624;2022-09-28T03:17:49;8.40;99.90
11501;DHT22;5807;51.606;7.624;2022-09-28T03:20:16;8.50;99.90
11501;DHT22;5807;51.606;7.624;2022-09-28T03:22:43;8.50;99.90
11501;DHT22;5807;51.606;7.624;2022-09-28T03:25:10;8.40;99.90
11501;DHT22;5807;51.606;7.624;2022-09-28T03:27:38;8.40;99.90
11501;DHT22;5807;51.606;7.624;2022-09-28T03:30:05;8.40;99.90
11501;DHT22;5807;51.606;7.624;2022-09-28T03:35:02;8.40;99.90
11501;DHT22;5807;51.606;7.624;2022-09-28T03:37:29;8.50;99.90
11501;DHT22;5807;51.606;7.624;2022-09-28T03:39:56;9.60;99.90
11501;DHT22;5807;51.606;7.624;2022-09-28T03:42:23;8.50;99.90
11501;DHT22;5807;51.606;7.624;2022-09-28T03:44:50;8.40;99.90
11501;DHT22;5807;51.606;7.624;2022-09-28T03:47:17;8.50;99.90
11501;DHT22;5807;51.606;7.624;2022-09-28T03:52:14;8.50;99.90
11501;DHT22;5807;51.606;7.624;2022-09-28T03:54:40;8.30;99.90
11501;DHT22;5807;51.606;7.624;2022-09-28T03:57:07;8.40;99.90
11501;DHT22;5807;51.606;7.624;2022-09-28T03:59:34;8.40;99.90
11501;DHT22;5807;51.606;7.624;2022-09-28T04:02:03;8.40;99.90
11501;DHT22;5807;51.606;7.624;2022-09-28T04:07:15;8.50;99.90
11501;DHT22;5807;51.606;7.624;2022-09-28T04:09:41;8.50;99.90
11501;DHT22;5807;51.606;7.624;2022-09-28T04:12:08;8.50;99.90
11501;DHT22;5807;51.606;7.624;2022-09-28T04:14:35;8.40;99.90
11501;DHT22;5807;51.606;7.624;2022-09-28T04:17:03;8.40;99.90
11501;DHT22;5807;51.606;7.624;2022-09-28T04:19:31;8.40;99.90
11501;DHT22;5807;51.606;7.624;2022-09-28T04:21:58;8.40;99.90
11501;DHT22;5807;51.606;7.624;2022-09-28T04:24:28;8.40;99.90
11501;DHT22;5807;51.606;7.624;2022-09-28T04:26:55;8.30;99.90
11501;DHT22;5807;51.606;7.624;2022-09-28T04:29:42;8.30;99.90
11501;DHT22;5807;51.606;7.624;2022-09-28T04:32:09;8.40;99.90
11501;DHT22;5807;51.606;7.624;2022-09-28T04:34:36;8.40;99.90
11501;DHT22;5807;51.606;7.624;2022-09-28T04:37:03;8.80;99.90
11501;DHT22;5807;51.606;7.624;2022-09-28T04:39:31;8.40;99.90
11501;DHT22;5807;51.606;7.624;2022-09-28T04:41:58;8.40;99.90
11501;DHT22;5807;51.606;7.624;2022-09-28T04:44:26;8.30;99.90
11501;DHT22;5807;51.606;7.624;2022-09-28T04:46:54;9.40;99.90
11501;DHT22;5807;51.606;7.624;2022-09-28T04:49:21;8.80;99.90
11501;DHT22;5807;51.606;7.624;2022-09-28T04:51:48;8.30;99.90
11501;DHT22;5807;51.606;7.624;2022-09-28T04:54:16;8.30;99.90
11501;DHT22;5807;51.606;7.624;2022-09-28T04:59:12;8.30;99.90
11501;DHT22;5807;51.606;7.624;2022-09-28T05:01:39;8.30;99.90
11501;DHT22;5807;51.606;7.624;2022-09-28T05:04:06;9.20;99.90
11501;DHT22;5807;51.606;7.624;2022-09-28T05:06:33;8.20;99.90
11501;DHT22;5807;51.606;7.624;2022-09-28T05:08:59;7.20;99.90
11501;DHT22;5807;51.606;7.624;2022-09-28T05:11:26;8.60;99.90
11501;DHT22;5807;51.606;7.624;2022-09-28T05:13:55;7.80;99.90
11501;DHT22;5807;51.606;7.624;2022-09-28T05:16:22;8.20;99.90
11501;DHT22;5807;51.606;7.624;2022-09-28T05:18:53;8.10;99.90
11501;DHT22;5807;51.606;7.624;2022-09-28T05:21:21;7.50;99.90
11501;DHT22;5807;51.606;7.624;2022-09-28T05:23:50;7.70;99.90
11501;DHT22;5807;51.606;7.624;2022-09-28T05:26:20;8.20;99.90
11501;DHT22;5807;51.606;7.624;2022-09-28T05:28:47;8.10;99.90
11501;DHT22;5807;51.606;7.624;2022-09-28T05:33:45;8.20;99.90
11501;DHT22;5807;51.606;7.624;2022-09-28T05:36:12;8.30;99.90
11501;DHT22;5807;51.606;7.624;2022-09-28T05:38:38;8.30;99.90
11501;DHT22;5807;51.606;7.624;2022-09-28T05:41:05;8.30;99.90
11501;DHT22;5807;51.606;7.624;2022-09-28T05:43:32;8.30;99.90
11501;DHT22;5807;51.606;7.624;2022-09-28T05:45:59;7.50;99.90
11501;DHT22;5807;51.606;7.624;2022-09-28T05:48:27;8.20;99.90
11501;DHT22;5807;51.606;7.624;2022-09-28T05:50:55;8.30;99.90
11501;DHT22;5807;51.606;7.624;2022-09-28T05:53:23;7.80;99.90
11501;DHT22;5807;51.606;7.624;2022-09-28T05:55:50;9.00;99.90
11501;DHT22;5807;51.606;7.624;2022-09-28T05:58:17;8.30;99.90
11501;DHT22;5807;51.606;7.624;2022-09-28T06:00:44;8.70;99.90
11501;DHT22;5807;51.606;7.624;2022-09-28T06:03:13;8.30;99.90
11501;DHT22;5807;51.606;7.624;2022-09-28T06:05:41;8.40;99.90
11501;DHT22;5807;51.606;7.624;2022-09-28T06:08:08;8.40;99.90
11501;DHT22;5807;51.606;7.624;2022-09-28T06:10:36;8.00;99.90
11501;DHT22;5807;51.606;7.624;2022-09-28T06:13:03;8.30;99.90
11501;DHT22;5807;51.606;7.624;2022-09-28T06:15:32;8.40;99.90
11501;DHT22;5807;51.606;7.624;2022-09-28T06:18:01;8.40;99.90
11501;DHT22;5807;51.606;7.624;2022-09-28T06:20:30;8.10;99.90
11501;DHT22;5807;51.606;7.624;2022-09-28T06:23:00;9.70;99.90
11501;DHT22;5807;51.606;7.624;2022-09-28T06:25:27;8.60;99.90
11501;DHT22;5807;51.606;7.624;2022-09-28T06:27:55;8.10;99.90
11501;DHT22;5807;51.606;7.624;2022-09-28T06:30:23;8.50;99.90
11501;DHT22;5807;51.606;7.624;2022-09-28T06:32:52;8.50;99.90
11501;DHT22;5807;51.606;7.624;2022-09-28T06:35:20;8.60;99.90
11501;DHT22;5807;51.606;7.624;2022-09-28T06:37:47;8.60;99.90
11501;DHT22;5807;51.606;7.624;2022-09-28T06:42:43;8.50;99.90
11501;DHT22;5807;51.606;7.624;2022-09-28T06:45:10;8.70;99.90
11501;DHT22;5807;51.606;7.624;2022-09-28T06:47:38;8.70;99.90
11501;DHT22;5807;51.606;7.624;2022-09-28T06:50:06;7.90;99.90
11501;DHT22;5807;51.606;7.624;2022-09-28T06:52:37;8.90;99.90
11501;DHT22;5807;51.606;7.624;2022-09-28T06:55:04;8.90;99.90
11501;DHT22;5807;51.606;7.624;2022-09-28T06:57:32;8.90;99.90
11501;DHT22;5807;51.606;7.624;2022-09-28T07:00:00;8.40;99.90
11501;DHT22;5807;51.606;7.624;2022-09-28T07:02:27;9.00;99.90
11501;DHT22;5807;51.606;7.624;2022-09-28T07:04:55;9.00;99.90
11501;DHT22;5807;51.606;7.624;2022-09-28T07:07:23;8.80;99.90
11501;DHT22;5807;51.606;7.624;2022-09-28T07:09:52;9.30;99.90
11501;DHT22;5807;51.606;7.624;2022-09-28T07:12:20;9.00;99.90
11501;DHT22;5807;51.606;7.624;2022-09-28T07:14:49;8.30;99.90
11501;DHT22;5807;51.606;7.624;2022-09-28T07:17:20;9.10;99.90
11501;DHT22;5807;51.606;7.624;2022-09-28T07:19:47;9.00;99.90
11501;DHT22;5807;51.606;7.624;2022-09-28T07:22:17;9.30;99.90
11501;DHT22;5807;51.606;7.624;2022-09-28T07:24:44;9.50;99.90
11501;DHT22;5807;51.606;7.624;2022-09-28T07:27:11;9.60;99.90
11501;DHT22;5807;51.606;7.624;2022-09-28T07:29:38;9.60;99.90
11501;DHT22;5807;51.606;7.624;2022-09-28T07:32:06;8.50;99.90
11501;DHT22;5807;51.606;7.624;2022-09-28T07:34:33;9.90;99.90
11501;DHT22;5807;51.606;7.624;2022-09-28T07:37:08;10.20;99.90
11501;DHT22;5807;51.606;7.624;2022-09-28T07:39:35;9.40;99.90
11501;DHT22;5807;51.606;7.624;2022-09-28T07:42:22;9.40;99.90
11501;DHT22;5807;51.606;7.624;2022-09-28T07:44:48;9.30;99.90
11501;DHT22;5807;51.606;7.624;2022-09-28T07:49:51;9.30;99.90
11501;DHT22;5807;51.606;7.624;2022-09-28T07:52:19;9.90;99.90
11501;DHT22;5807;51.606;7.624;2022-09-28T07:54:48;9.40;99.90
11501;DHT22;5807;51.606;7.624;2022-09-28T07:57:16;9.50;99.90
11501;DHT22;5807;51.606;7.624;2022-09-28T07:59:44;9.60;99.90
11501;DHT22;5807;51.606;7.624;2022-09-28T08:02:11;9.60;99.90
11501;DHT22;5807;51.606;7.624;2022-09-28T08:04:39;9.60;99.90
11501;DHT22;5807;51.606;7.624;2022-09-28T08:07:08;8.30;99.90
11501;DHT22;5807;51.606;7.624;2022-09-28T08:09:35;11.50;99.90
11501;DHT22;5807;51.606;7.624;2022-09-28T08:12:03;9.80;99.90
11501;DHT22;5807;51.606;7.624;2022-09-28T08:14:30;9.70;99.90
11501;DHT22;5807;51.606;7.624;2022-09-28T08:16:59;11.80;99.90
11501;DHT22;5807;51.606;7.624;2022-09-28T08:19:26;9.80;99.90
11501;DHT22;5807;51.606;7.624;2022-09-28T08:22:16;9.80;99.90
11501;DHT22;5807;51.606;7.624;2022-09-28T08:24:43;10.60;99.90
11501;DHT22;5807;51.606;7.624;2022-09-28T08:27:10;9.60;99.90
11501;DHT22;5807;51.606;7.624;2022-09-28T08:29:37;9.90;99.90
11501;DHT22;5807;51.606;7.624;2022-09-28T08:32:05;11.20;99.90
11501;DHT22;5807;51.606;7.624;2022-09-28T08:34:33;9.50;99.90
11501;DHT22;5807;51.606;7.624;2022-09-28T08:36:59;10.10;99.90
11501;DHT22;5807;51.606;7.624;2022-09-28T08:39:28;10.10;99.90
11501;DHT22;5807;51.606;7.624;2022-09-28T08:44:39;10.30;99.90
11501;DHT22;5807;51.606;7.624;2022-09-28T08:47:12;10.40;99.90
11501;DHT22;5807;51.606;7.624;2022-09-28T08:50:04;10.50;99.90
11501;DHT22;5807;51.606;7.624;2022-09-28T08:52:36;10.60;99.90
11501;DHT22;5807;51.606;7.624;2022-09-28T08:55:09;10.70;99.90
11501;DHT22;5807;51.606;7.624;2022-09-28T08:57:41;11.10;99.90
11501;DHT22;5807;51.606;7.624;2022-09-28T09:00:18;11.90;99.90
11501;DHT22;5807;51.606;7.624;2022-09-28T09:02:46;10.50;99.90
11501;DHT22;5807;51.606;7.624;2022-09-28T09:05:16;10.40;99.90
11501;DHT22;5807;51.606;7.624;2022-09-28T09:07:57;10.30;99.90
11501;DHT22;5807;51.606;7.624;2022-09-28T09:10:42;9.80;99.90
11501;DHT22;5807;51.606;7.624;2022-09-28T09:13:34;9.90;99.90
11501;DHT22;5807;51.606;7.624;2022-09-28T09:16:12;10.30;99.90
11501;DHT22;5807;51.606;7.624;2022-09-28T09:18:47;13.30;99.90
11501;DHT22;5807;51.606;7.624;2022-09-28T09:21:31;7.60;99.90
11501;DHT22;5807;51.606;7.624;2022-09-28T09:24:13;11.40;99.90
11501;DHT22;5807;51.606;7.624;2022-09-28T09:26:44;10.40;99.90
11501;DHT22;5807;51.606;7.624;2022-09-28T09:29:31;10.40;99.90
11501;DHT22;5807;51.606;7.624;2022-09-28T09:32:24;10.00;99.90
11501;DHT22;5807;51.606;7.624;2022-09-28T09:35:19;10.50;99.90
11501;DHT22;5807;51.606;7.624;2022-09-28T09:38:06;12.10;99.90
11501;DHT22;5807;51.606;7.624;2022-09-28T09:40:47;10.50;99.90
11501;DHT22;5807;51.606;7.624;2022-09-28T09:43:41;10.90;99.90
11501;DHT22;5807;51.606;7.624;2022-09-28T09:46:14;10.80;99.90
11501;DHT22;5807;51.606;7.624;2022-09-28T09:48:48;10.30;99.90
11501;DHT22;5807;51.606;7.624;2022-09-28T09:51:21;12.20;99.90
11501;DHT22;5807;51.606;7.624;2022-09-28T09:53:53;10.60;99.90
11501;DHT22;5807;51.606;7.624;2022-09-28T09:56:30;10.10;99.90
11501;DHT22;5807;51.606;7.624;2022-09-28T09:59:04;11.30;99.90
11501;DHT22;5807;51.606;7.624;2022-09-28T10:01:36;11.80;99.90
11501;DHT22;5807;51.606;7.624;2022-09-28T10:04:07;10.20;99.90
11501;DHT22;5807;51.606;7.624;2022-09-28T10:06:41;10.40;99.90
11501;DHT22;5807;51.606;7.624;2022-09-28T10:09:11;10.80;99.90
11501;DHT22;5807;51.606;7.624;2022-09-28T10:11:42;10.80;99.90
11501;DHT22;5807;51.606;7.624;2022-09-28T10:14:12;10.70;99.90
11501;DHT22;5807;51.606;7.624;2022-09-28T10:16:41;10.80;99.90
11501;DHT22;5807;51.606;7.624;2022-09-28T10:19:11;10.90;99.90
11501;DHT22;5807;51.606;7.624;2022-09-28T10:21:39;11.00;99.90
11501;DHT22;5807;51.606;7.624;2022-09-28T10:24:14;11.00;99.90
11501;DHT22;5807;51.606;7.624;2022-09-28T10:26:47;11.00;99.90
11501;DHT22;5807;51.606;7.624;2022-09-28T10:29:19;11.10;99.90
11501;DHT22;5807;51.606;7.624;2022-09-28T10:31:47;11.20;99.90
11501;DHT22;5807;51.606;7.624;2022-09-28T10:34:17;11.20;99.90
11501;DHT22;5807;51.606;7.624;2022-09-28T10:36:48;11.30;99.90
11501;DHT22;5807;51.606;7.624;2022-09-28T10:39:35;11.80;99.90
11501;DHT22;5807;51.606;7.624;2022-09-28T10:42:06;12.60;99.90
11501;DHT22;5807;51.606;7.624;2022-09-28T10:44:49;11.40;99.90
11501;DHT22;5807;51.606;7.624;2022-09-28T10:47:19;10.40;99.90
11501;DHT22;5807;51.606;7.624;2022-09-28T10:49:49;11.20;99.90
11501;DHT22;5807;51.606;7.624;2022-09-28T10:52:30;11.20;99.90
11501;DHT22;5807;51.606;7.624;2022-09-28T10:54:57;11.20;99.90
11501;DHT22;5807;51.606;7.624;2022-09-28T10:57:27;10.90;99.90
11501;DHT22;5807;51.606;7.624;2022-09-28T10:59:57;10.80;99.90
11501;DHT22;5807;51.606;7.624;2022-09-28T11:02:25;10.80;99.90
11501;DHT22;5807;51.606;7.624;2022-09-28T11:04:55;10.80;99.90
11501;DHT22;5807;51.606;7.624;2022-09-28T11:07:25;12.10;99.90
11501;DHT22;5807;51.606;7.624;2022-09-28T11:09:54;10.90;99.90
11501;DHT22;5807;51.606;7.624;2022-09-28T11:12:24;11.10;99.90
11501;DHT22;5807;51.606;7.624;2022-09-28T11:14:57;13.20;99.90
11501;DHT22;5807;51.606;7.624;2022-09-28T11:17:28;12.00;99.90
11501;DHT22;5807;51.606;7.624;2022-09-28T11:19:56;11.10;99.90
11501;DHT22;5807;51.606;7.624;2022-09-28T11:22:26;11.10;99.90
11501;DHT22;5807;51.606;7.624;2022-09-28T11:25:18;11.10;99.90
11501;DHT22;5807;51.606;7.624;2022-09-28T11:27:55;12.50;99.90
11501;DHT22;5807;51.606;7.624;2022-09-28T11:30:27;11.20;99.90
11501;DHT22;5807;51.606;7.624;2022-09-28T11:33:01;11.20;99.90
11501;DHT22;5807;51.606;7.624;2022-09-28T11:35:40;11.20;99.90
11501;DHT22;5807;51.606;7.624;2022-09-28T11:38:21;11.40;99.90
11501;DHT22;5807;51.606;7.624;2022-09-28T11:41:00;13.00;99.90
11501;DHT22;5807;51.606;7.624;2022-09-28T11:43:42;11.00;99.90
11501;DHT22;5807;51.606;7.624;2022-09-28T11:46:18;14.70;99.90
11501;DHT22;5807;51.606;7.624;2022-09-28T11:51:23;12.00;99.90
11501;DHT22;5807;51.606;7.624;2022-09-28T11:53:54;12.10;99.90
11501;DHT22;5807;51.606;7.624;2022-09-28T11:56:31;13.00;99.90
11501;DHT22;5807;51.606;7.624;2022-09-28T11:59:02;12.20;99.90
11501;DHT22;5807;51.606;7.624;2022-09-28T12:01:35;12.60;99.90
11501;DHT22;5807;51.606;7.624;2022-09-28T12:04:08;12.40;99.90
11501;DHT22;5807;51.606;7.624;2022-09-28T12:06:39;13.70;99.90
11501;DHT22;5807;51.606;7.624;2022-09-28T12:09:14;11.80;99.90
11501;DHT22;5807;51.606;7.624;2022-09-28T12:11:51;13.50;99.90
11501;DHT22;5807;51.606;7.624;2022-09-28T12:14:23;13.60;99.90
11501;DHT22;5807;51.606;7.624;2022-09-28T12:16:57;12.80;99.90
11501;DHT22;5807;51.606;7.624;2022-09-28T12:19:32;12.70;99.90
11501;DHT22;5807;51.606;7.624;2022-09-28T12:22:04;12.60;99.90
11501;DHT22;5807;51.606;7.624;2022-09-28T12:24:39;12.70;99.90
11501;DHT22;5807;51.606;7.624;2022-09-28T12:27:14;12.70;99.90
11501;DHT22;5807;51.606;7.624;2022-09-28T12:29:47;12.70;99.90
11501;DHT22;5807;51.606;7.624;2022-09-28T12:32:25;13.60;99.90
11501;DHT22;5807;51.606;7.624;2022-09-28T12:34:55;13.60;99.90
11501;DHT22;5807;51.606;7.624;2022-09-28T12:37:51;14.00;99.90
11501;DHT22;5807;51.606;7.624;2022-09-28T12:40:29;14.30;99.90
11501;DHT22;5807;51.606;7.624;2022-09-28T12:45:42;14.10;99.90
11501;DHT22;5807;51.606;7.624;2022-09-28T12:51:33;13.40;99.90
11501;DHT22;5807;51.606;7.624;2022-09-28T12:54:12;13.20;99.90
11501;DHT22;5807;51.606;7.624;2022-09-28T12:56:54;13.00;99.90
11501;DHT22;5807;51.606;7.624;2022-09-28T12:59:29;12.80;99.90
11501;DHT22;5807;51.606;7.624;2022-09-28T13:02:15;12.70;99.90
11501;DHT22;5807;51.606;7.624;2022-09-28T13:05:05;12.50;99.90
11501;DHT22;5807;51.606;7.624;2022-09-28T13:07:45;12.40;99.90
11501;DHT22;5807;51.606;7.624;2022-09-28T13:10:21;12.40;99.90
11501;DHT22;5807;51.606;7.624;2022-09-28T13:13:05;12.90;99.90
11501;DHT22;5807;51.606;7.624;2022-09-28T13:15:41;13.30;99.90
11501;DHT22;5807;51.606;7.624;2022-09-28T13:18:29;13.50;99.90
11501;DHT22;5807;51.606;7.624;2022-09-28T13:21:13;13.50;99.90
11501;DHT22;5807;51.606;7.624;2022-09-28T13:23:45;13.50;99.90
11501;DHT22;5807;51.606;7.624;2022-09-28T13:26:18;13.50;99.90
11501;DHT22;5807;51.606;7.624;2022-09-28T13:28:49;13.40;99.90
11501;DHT22;5807;51.606;7.624;2022-09-28T13:31:21;13.40;99.90
11501;DHT22;5807;51.606;7.624;2022-09-28T13:33:51;13.40;99.90
11501;DHT22;5807;51.606;7.624;2022-09-28T13:36:37;13.30;99.90
11501;DHT22;5807;51.606;7.624;2022-09-28T13:39:35;13.30;99.90
11501;DHT22;5807;51.606;7.624;2022-09-28T13:42:04;13.30;99.90
11501;DHT22;5807;51.606;7.624;2022-09-28T13:44:46;13.00;99.90
11501;DHT22;5807;51.606;7.624;2022-09-28T13:47:23;13.00;99.90
11501;DHT22;5807;51.606;7.624;2022-09-28T13:50:03;12.80;99.90
11501;DHT22;5807;51.606;7.624;2022-09-28T13:52:44;12.60;99.90
11501;DHT22;5807;51.606;7.624;2022-09-28T13:55:25;12.50;99.90
11501;DHT22;5807;51.606;7.624;2022-09-28T13:57:57;12.50;99.90
11501;DHT22;5807;51.606;7.624;2022-09-28T14:00:28;12.40;99.90
11501;DHT22;5807;51.606;7.624;2022-09-28T14:03:02;12.50;99.90
11501;DHT22;5807;51.606;7.624;2022-09-28T14:08:42;12.60;99.90
11501;DHT22;5807;51.606;7.624;2022-09-28T14:11:36;12.80;99.90
11501;DHT22;5807;51.606;7.624;2022-09-28T14:20:23;13.30;99.90
11501;DHT22;5807;51.606;7.624;2022-09-28T14:26:24;13.40;99.90
11501;DHT22;5807;51.606;7.624;2022-09-28T14:29:04;13.50;99.90
11501;DHT22;5807;51.606;7.624;2022-09-28T14:31:41;13.70;99.90
11501;DHT22;5807;51.606;7.624;2022-09-28T14:34:24;13.70;99.90
11501;DHT22;5807;51.606;7.624;2022-09-28T14:39:42;14.10;99.90
11501;DHT22;5807;51.606;7.624;2022-09-28T14:42:29;14.10;99.90
11501;DHT22;5807;51.606;7.624;2022-09-28T14:45:31;14.20;99.90
11501;DHT22;5807;51.606;7.624;2022-09-28T14:48:13;14.30;99.90
11501;DHT22;5807;51.606;7.624;2022-09-28T14:50:43;14.20;99.90
11501;DHT22;5807;51.606;7.624;2022-09-28T14:53:14;14.00;99.90
11501;DHT22;5807;51.606;7.624;2022-09-28T14:55:46;13.60;99.90
11501;DHT22;5807;51.606;7.624;2022-09-28T14:58:21;13.90;99.90
11501;DHT22;5807;51.606;7.624;2022-09-28T15:01:13;14.10;99.90
11501;DHT22;5807;51.606;7.624;2022-09-28T15:03:50;14.10;99.90
11501;DHT22;5807;51.606;7.624;2022-09-28T15:06:21;14.30;99.90
11501;DHT22;5807;51.606;7.624;2022-09-28T15:08:48;14.50;99.90
11501;DHT22;5807;51.606;7.624;2022-09-28T15:11:18;14.70;99.90
11501;DHT22;5807;51.606;7.624;2022-09-28T15:13:48;14.60;99.90
11501;DHT22;5807;51.606;7.624;2022-09-28T15:16:22;14.40;99.90
11501;DHT22;5807;51.606;7.624;2022-09-28T15:19:07;14.00;99.90
11501;DHT22;5807;51.606;7.624;2022-09-28T15:21:38;14.10;99.90
11501;DHT22;5807;51.606;7.624;2022-09-28T15:24:32;14.10;99.90
11501;DHT22;5807;51.606;7.624;2022-09-28T15:27:01;14.10;99.90
11501;DHT22;5807;51.606;7.624;2022-09-28T15:29:29;14.70;99.90
11501;DHT22;5807;51.606;7.624;2022-09-28T15:31:58;14.00;99.90
11501;DHT22;5807;51.606;7.624;2022-09-28T15:34:26;13.90;99.90
11501;DHT22;5807;51.606;7.624;2022-09-28T15:37:11;14.80;99.90
11501;DHT22;5807;51.606;7.624;2022-09-28T15:39:37;13.90;99.90
11501;DHT22;5807;51.606;7.624;2022-09-28T15:42:05;13.70;99.90
11501;DHT22;5807;51.606;7.624;2022-09-28T15:44:34;13.50;99.90
11501;DHT22;5807;51.606;7.624;2022-09-28T15:47:13;13.40;99.90
11501;DHT22;5807;51.606;7.624;2022-09-28T15:49:44;13.50;99.90
11501;DHT22;5807;51.606;7.624;2022-09-28T15:52:29;13.70;99.90
11501;DHT22;5807;51.606;7.624;2022-09-28T15:55:01;13.20;99.90
11501;DHT22;5807;51.606;7.624;2022-09-28T15:57:35;13.10;99.90
11501;DHT22;5807;51.606;7.624;2022-09-28T16:00:15;14.50;99.90
11501;DHT22;5807;51.606;7.624;2022-09-28T16:02:58;12.80;99.90
11501;DHT22;5807;51.606;7.624;2022-09-28T16:05:36;12.80;99.90
11501;DHT22;5807;51.606;7.624;2022-09-28T16:08:10;12.50;99.90
11501;DHT22;5807;51.606;7.624;2022-09-28T16:10:52;12.30;99.90
11501;DHT22;5807;51.606;7.624;2022-09-28T16:13:21;12.20;99.90
11501;DHT22;5807;51.606;7.624;2022-09-28T16:15:56;12.10;99.90
11501;DHT22;5807;51.606;7.624;2022-09-28T16:18:24;12.00;99.90
11501;DHT22;5807;51.606;7.624;2022-09-28T16:20:53;11.80;99.90
11501;DHT22;5807;51.606;7.624;2022-09-28T16:23:24;11.80;99.90
11501;DHT22;5807;51.606;7.624;2022-09-28T16:25:54;11.80;99.90
11501;DHT22;5807;51.606;7.624;2022-09-28T16:28:26;11.60;99.90
11501;DHT22;5807;51.606;7.624;2022-09-28T16:31:02;11.40;99.90
11501;DHT22;5807;51.606;7.624;2022-09-28T16:33:38;11.80;99.90
11501;DHT22;5807;51.606;7.624;2022-09-28T16:36:11;12.20;99.90
11501;DHT22;5807;51.606;7.624;2022-09-28T16:38:39;11.20;99.90
11501;DHT22;5807;51.606;7.624;2022-09-28T16:41:09;11.10;99.90
11501;DHT22;5807;51.606;7.624;2022-09-28T16:43:36;12.40;99.90
11501;DHT22;5807;51.606;7.624;2022-09-28T16:46:07;11.00;99.90
11501;DHT22;5807;51.606;7.624;2022-09-28T16:48:36;10.90;99.90
11501;DHT22;5807;51.606;7.624;2022-09-28T16:51:04;10.80;99.90
11501;DHT22;5807;51.606;7.624;2022-09-28T16:53:31;10.50;99.90
11501;DHT22;5807;51.606;7.624;2022-09-28T16:56:15;9.70;99.90
11501;DHT22;5807;51.606;7.624;2022-09-28T16:58:43;10.70;99.90
11501;DHT22;5807;51.606;7.624;2022-09-28T17:01:14;10.70;99.90
11501;DHT22;5807;51.606;7.624;2022-09-28T17:03:40;11.40;99.90
11501;DHT22;5807;51.606;7.624;2022-09-28T17:06:11;9.80;99.90
11501;DHT22;5807;51.606;7.624;2022-09-28T17:08:39;12.40;99.90
11501;DHT22;5807;51.606;7.624;2022-09-28T17:11:12;10.60;99.90
11501;DHT22;5807;51.606;7.624;2022-09-28T17:13:39;10.90;99.90
11501;DHT22;5807;51.606;7.624;2022-09-28T17:16:10;11.80;99.90
11501;DHT22;5807;51.606;7.624;2022-09-28T17:18:39;10.40;99.90
11501;DHT22;5807;51.606;7.624;2022-09-28T17:21:10;10.50;99.90
11501;DHT22;5807;51.606;7.624;2022-09-28T17:23:37;10.50;99.90
11501;DHT22;5807;51.606;7.624;2022-09-28T17:26:04;11.70;99.90
11501;DHT22;5807;51.606;7.624;2022-09-28T17:28:33;10.50;99.90